Time,TemperatureF,DewpointF,PressureIn,WindDirection,WindDirectionDegrees,WindSpeedMPH,WindSpeedGustMPH,Humidity,HourlyPrecipIn,Conditions,Clouds,dailyrainin,SoftwareType,DateUTC
2013-04-25 00:00:00,38.6,36.5,30.26,SE,146,0.0,0.0,92,0.00,,,0.00,Wunderground v.1.15,2013-04-25 05:00:00,
2013-04-25 00:06:00,38.4,36.6,30.26,SE,146,0.0,0.0,93,0.00,,,0.00,Wunderground v.1.15,2013-04-25 05:06:00,
2013-04-25 00:11:00,38.2,36.4,30.27,SE,146,0.0,0.0,93,0.00,,,0.00,Wunderground v.1.15,2013-04-25 05:11:00,
2013-04-25 00:16:00,38.0,36.2,30.27,SE,146,0.0,0.0,93,0.00,,,0.00,Wunderground v.1.15,2013-04-25 05:16:00,
2013-04-25 00:21:00,37.8,36.0,30.27,SE,146,0.0,0.0,93,0.00,,,0.00,Wunderground v.1.15,2013-04-25 05:21:00,
2013-04-25 00:26:00,37.7,35.9,30.27,SE,146,0.0,0.0,93,0.00,,,0.00,Wunderground v.1.15,2013-04-25 05:26:00,
2013-04-25 00:31:00,37.5,35.7,30.27,SE,145,0.0,0.0,93,0.00,,,0.00,Wunderground v.1.15,2013-04-25 05:31:00,
2013-04-25 00:36:00,37.5,35.9,30.26,SE,146,0.0,0.0,94,0.00,,,0.00,Wunderground v.1.15,2013-04-25 05:36:00,
2013-04-25 00:41:00,37.5,35.9,30.26,SE,146,0.0,0.0,94,0.00,,,0.00,Wunderground v.1.15,2013-04-25 05:41:00,
2013-04-25 00:46:00,37.4,35.8,30.26,SE,146,0.0,0.0,94,0.00,,,0.00,Wunderground v.1.15,2013-04-25 05:46:00,
2013-04-25 00:52:00,37.3,35.7,30.26,SE,146,0.0,0.0,94,0.00,,,0.00,Wunderground v.1.15,2013-04-25 05:52:00,
2013-04-25 00:57:00,37.3,35.7,30.26,SE,145,0.0,0.0,94,0.00,,,0.00,Wunderground v.1.15,2013-04-25 05:57:00,
2013-04-25 01:02:00,37.1,35.5,30.26,SE,146,0.0,0.0,94,0.00,,,0.00,Wunderground v.1.15,2013-04-25 06:02:00,
2013-04-25 01:07:00,36.8,35.2,30.26,SE,146,0.0,0.0,94,0.00,,,0.00,Wunderground v.1.15,2013-04-25 06:07:00,
2013-04-25 01:12:00,36.8,35.5,30.26,SE,145,0.0,0.0,95,0.00,,,0.00,Wunderground v.1.15,2013-04-25 06:12:00,
2013-04-25 01:18:00,36.9,35.6,30.26,SSE,149,0.0,0.0,95,0.00,,,0.00,Wunderground v.1.15,2013-04-25 06:18:00,
2013-04-25 01:23:00,36.8,35.5,30.26,SSE,149,0.0,0.0,95,0.00,,,0.00,Wunderground v.1.15,2013-04-25 06:23:00,
2013-04-25 01:28:00,36.4,35.1,30.26,SSE,149,0.0,0.0,95,0.00,,,0.00,Wunderground v.1.15,2013-04-25 06:28:00,
2013-04-25 01:33:00,36.1,34.8,30.26,SSE,149,0.0,0.0,95,0.00,,,0.00,Wunderground v.1.15,2013-04-25 06:33:00,
2013-04-25 01:38:00,36.2,34.9,30.26,SSE,149,0.0,0.0,95,0.00,,,0.00,Wunderground v.1.15,2013-04-25 06:38:00,
2013-04-25 01:43:00,36.3,35.0,30.26,SSE,149,0.0,0.0,95,0.00,,,0.00,Wunderground v.1.15,2013-04-25 06:43:00,
2013-04-25 01:48:00,36.4,35.1,30.26,SSE,150,0.0,0.0,95,0.00,,,0.00,Wunderground v.1.15,2013-04-25 06:48:00,
2013-04-25 01:53:00,36.4,35.1,30.26,SSE,149,0.0,0.0,95,0.00,,,0.00,Wunderground v.1.15,2013-04-25 06:53:00,
2013-04-25 01:59:00,36.4,35.1,30.26,SSE,149,0.0,0.0,95,0.00,,,0.00,Wunderground v.1.15,2013-04-25 06:59:00,
2013-04-25 02:04:00,36.5,35.5,30.26,SSE,149,0.0,0.0,96,0.00,,,0.00,Wunderground v.1.15,2013-04-25 07:04:00,
2013-04-25 02:09:00,36.6,35.6,30.26,SSE,147,0.0,0.0,96,0.00,,,0.00,Wunderground v.1.15,2013-04-25 07:09:00,
2013-04-25 02:14:00,36.6,35.6,30.26,SE,146,0.0,0.0,96,0.00,,,0.00,Wunderground v.1.15,2013-04-25 07:14:00,
2013-04-25 02:19:00,36.7,35.7,30.26,SSE,147,0.0,0.0,96,0.00,,,0.00,Wunderground v.1.15,2013-04-25 07:19:00,
2013-04-25 02:25:00,36.7,35.7,30.26,SE,146,0.0,0.0,96,0.00,,,0.00,Wunderground v.1.15,2013-04-25 07:25:00,
2013-04-25 02:30:00,36.6,35.6,30.26,SE,146,0.0,0.0,96,0.00,,,0.00,Wunderground v.1.15,2013-04-25 07:30:00,
2013-04-25 02:35:00,36.6,35.6,30.26,SE,146,0.0,0.0,96,0.00,,,0.00,Wunderground v.1.15,2013-04-25 07:35:00,
2013-04-25 02:40:00,36.5,35.5,30.26,SE,146,0.0,0.0,96,0.00,,,0.00,Wunderground v.1.15,2013-04-25 07:40:00,
2013-04-25 02:46:00,36.5,35.5,30.26,SE,138,0.0,0.0,96,0.00,,,0.00,Wunderground v.1.15,2013-04-25 07:46:00,
2013-04-25 02:51:00,36.5,35.5,30.26,SE,131,0.0,0.0,96,0.00,,,0.00,Wunderground v.1.15,2013-04-25 07:51:00,
2013-04-25 02:56:00,36.4,35.4,30.26,SE,131,0.0,0.0,96,0.00,,,0.00,Wunderground v.1.15,2013-04-25 07:56:00,
2013-04-25 03:02:00,36.3,35.3,30.26,ESE,108,0.0,0.0,96,0.00,,,0.00,Wunderground v.1.15,2013-04-25 08:02:00,
2013-04-25 03:07:00,36.3,35.3,30.26,SE,131,0.0,0.0,96,0.00,,,0.00,Wunderground v.1.15,2013-04-25 08:07:00,
2013-04-25 03:12:00,36.1,35.1,30.26,SE,127,0.0,0.0,96,0.00,,,0.00,Wunderground v.1.15,2013-04-25 08:12:00,
2013-04-25 03:17:00,36.1,35.1,30.26,SE,127,0.0,0.0,96,0.00,,,0.00,Wunderground v.1.15,2013-04-25 08:17:00,
2013-04-25 03:23:00,36.0,35.0,30.26,SE,129,0.0,0.0,96,0.00,,,0.00,Wunderground v.1.15,2013-04-25 08:23:00,
2013-04-25 03:28:00,35.9,34.9,30.26,ESE,120,0.0,0.0,96,0.00,,,0.00,Wunderground v.1.15,2013-04-25 08:28:00,
2013-04-25 03:33:00,35.8,34.8,30.26,ESE,120,0.0,0.0,96,0.00,,,0.00,Wunderground v.1.15,2013-04-25 08:33:00,
2013-04-25 03:38:00,35.7,34.7,30.27,ESE,120,0.0,0.0,96,0.00,,,0.00,Wunderground v.1.15,2013-04-25 08:38:00,
2013-04-25 03:43:00,35.6,34.6,30.27,ESE,120,0.0,0.0,96,0.00,,,0.00,Wunderground v.1.15,2013-04-25 08:43:00,
2013-04-25 03:48:00,35.7,34.7,30.27,ESE,115,0.0,0.0,96,0.00,,,0.00,Wunderground v.1.15,2013-04-25 08:48:00,
2013-04-25 03:53:00,35.9,34.9,30.27,SSE,149,0.0,1.0,96,0.00,,,0.00,Wunderground v.1.15,2013-04-25 08:53:00,
2013-04-25 03:58:00,36.0,35.2,30.27,NE,43,0.0,1.0,97,0.00,,,0.00,Wunderground v.1.15,2013-04-25 08:58:00,
2013-04-25 04:04:00,36.1,35.3,30.27,SSE,162,0.0,0.0,97,0.00,,,0.00,Wunderground v.1.15,2013-04-25 09:04:00,
2013-04-25 04:09:00,36.3,35.5,30.27,SE,141,0.0,0.0,97,0.00,,,0.00,Wunderground v.1.15,2013-04-25 09:09:00,
2013-04-25 04:15:00,36.7,35.9,30.27,South,180,0.0,2.0,97,0.00,,,0.00,Wunderground v.1.15,2013-04-25 09:15:00,
2013-04-25 04:20:00,36.9,36.1,30.27,WSW,243,0.0,2.0,97,0.00,,,0.00,Wunderground v.1.15,2013-04-25 09:20:00,
2013-04-25 04:25:00,37.2,36.4,30.27,ESE,117,0.0,2.0,97,0.00,,,0.00,Wunderground v.1.15,2013-04-25 09:25:00,
2013-04-25 04:31:00,37.7,36.9,30.27,WSW,253,0.0,1.0,97,0.00,,,0.00,Wunderground v.1.15,2013-04-25 09:31:00,
2013-04-25 04:36:00,38.0,37.0,30.27,SSE,155,0.0,1.0,96,0.00,,,0.00,Wunderground v.1.15,2013-04-25 09:36:00,
2013-04-25 04:41:00,38.0,36.7,30.27,SSW,195,0.0,1.0,95,0.00,,,0.00,Wunderground v.1.15,2013-04-25 09:41:00,
2013-04-25 04:46:00,38.0,36.7,30.27,SE,136,0.0,2.0,95,0.00,,,0.00,Wunderground v.1.15,2013-04-25 09:46:00,
2013-04-25 04:51:00,38.1,36.5,30.27,SE,143,0.0,0.0,94,0.00,,,0.00,Wunderground v.1.15,2013-04-25 09:51:00,
2013-04-25 04:57:00,38.0,36.4,30.27,ESE,121,0.0,1.0,94,0.00,,,0.00,Wunderground v.1.15,2013-04-25 09:57:00,
2013-04-25 05:03:00,38.0,36.4,30.27,SE,125,0.0,1.0,94,0.00,,,0.00,Wunderground v.1.15,2013-04-25 10:03:00,
2013-04-25 05:08:00,38.0,36.4,30.27,South,173,0.0,2.0,94,0.00,,,0.00,Wunderground v.1.15,2013-04-25 10:08:00,
2013-04-25 05:13:00,37.8,36.0,30.27,ESE,121,0.0,1.0,93,0.00,,,0.00,Wunderground v.1.15,2013-04-25 10:13:00,
2013-04-25 05:18:00,37.7,35.9,30.27,ESE,117,0.0,1.0,93,0.00,,,0.00,Wunderground v.1.15,2013-04-25 10:18:00,
2013-04-25 05:23:00,37.8,36.0,30.27,ESE,120,0.0,0.0,93,0.00,,,0.00,Wunderground v.1.15,2013-04-25 10:23:00,
2013-04-25 05:28:00,37.7,35.9,30.26,SE,146,0.0,0.0,93,0.00,,,0.00,Wunderground v.1.15,2013-04-25 10:28:00,
2013-04-25 05:34:00,37.5,35.7,30.26,ESE,117,0.0,0.0,93,0.00,,,0.00,Wunderground v.1.15,2013-04-25 10:34:00,
2013-04-25 05:39:00,37.4,35.6,30.26,SSE,160,0.0,2.0,93,0.00,,,0.00,Wunderground v.1.15,2013-04-25 10:39:00,
2013-04-25 05:44:00,37.6,35.8,30.26,SSE,158,1.0,1.0,93,0.00,,,0.00,Wunderground v.1.15,2013-04-25 10:44:00,
2013-04-25 05:49:00,37.5,35.7,30.26,SE,131,0.0,1.0,93,0.00,,,0.00,Wunderground v.1.15,2013-04-25 10:49:00,
2013-04-25 05:54:00,37.7,35.9,30.27,SW,236,0.0,2.0,93,0.00,,,0.00,Wunderground v.1.15,2013-04-25 10:54:00,
2013-04-25 05:59:00,37.9,36.1,30.27,West,275,0.0,2.0,93,0.00,,,0.00,Wunderground v.1.15,2013-04-25 10:59:00,
2013-04-25 06:05:00,38.3,36.5,30.27,SE,138,0.0,2.0,93,0.00,,,0.00,Wunderground v.1.15,2013-04-25 11:05:00,
2013-04-25 06:10:00,38.5,36.7,30.28,SE,137,0.0,0.0,93,0.00,,,0.00,Wunderground v.1.15,2013-04-25 11:10:00,
2013-04-25 06:15:00,38.6,36.8,30.28,WSW,257,0.0,3.0,93,0.00,,,0.00,Wunderground v.1.15,2013-04-25 11:15:00,
2013-04-25 06:20:00,38.9,36.8,30.28,SSE,159,0.0,0.0,92,0.00,,,0.00,Wunderground v.1.15,2013-04-25 11:20:00,
2013-04-25 06:25:00,39.3,37.2,30.28,West,274,0.0,0.0,92,0.00,,,0.00,Wunderground v.1.15,2013-04-25 11:25:00,
2013-04-25 06:30:00,39.9,37.8,30.28,SSW,200,0.0,0.0,92,0.00,,,0.00,Wunderground v.1.15,2013-04-25 11:30:00,
2013-04-25 06:35:00,40.3,37.9,30.28,SE,140,0.0,1.0,91,0.00,,,0.00,Wunderground v.1.15,2013-04-25 11:35:00,
2013-04-25 06:41:00,40.7,38.0,30.28,SE,130,1.0,2.0,90,0.00,,,0.00,Wunderground v.1.15,2013-04-25 11:41:00,
2013-04-25 06:46:00,40.9,38.2,30.28,West,274,1.0,3.0,90,0.00,,,0.00,Wunderground v.1.15,2013-04-25 11:46:00,
2013-04-25 06:51:00,41.2,38.5,30.28,SSW,208,0.0,1.0,90,0.00,,,0.00,Wunderground v.1.15,2013-04-25 11:51:00,
2013-04-25 06:56:00,41.5,38.5,30.28,ESE,117,0.0,2.0,89,0.00,,,0.00,Wunderground v.1.15,2013-04-25 11:56:00,
2013-04-25 07:02:00,42.0,39.0,30.28,SE,143,1.0,1.0,89,0.00,,,0.00,Wunderground v.1.15,2013-04-25 12:02:00,
2013-04-25 07:07:00,42.4,39.1,30.28,WSW,243,1.0,4.0,88,0.00,,,0.00,Wunderground v.1.15,2013-04-25 12:07:00,
2013-04-25 07:12:00,42.8,39.5,30.28,WSW,243,1.0,1.0,88,0.00,,,0.00,Wunderground v.1.15,2013-04-25 12:12:00,
2013-04-25 07:17:00,43.1,39.5,30.28,ESE,110,1.0,2.0,87,0.00,,,0.00,Wunderground v.1.15,2013-04-25 12:17:00,
2013-04-25 07:22:00,43.6,40.0,30.29,WSW,246,1.0,1.0,87,0.00,,,0.00,Wunderground v.1.15,2013-04-25 12:22:00,
2013-04-25 07:28:00,44.0,40.1,30.29,SSW,200,1.0,4.0,86,0.00,,,0.00,Wunderground v.1.15,2013-04-25 12:28:00,
2013-04-25 07:33:00,44.5,40.6,30.29,WNW,286,1.0,3.0,86,0.00,,,0.00,Wunderground v.1.15,2013-04-25 12:33:00,
2013-04-25 07:38:00,44.7,40.5,30.29,SW,222,1.0,4.0,85,0.00,,,0.00,Wunderground v.1.15,2013-04-25 12:38:00,
2013-04-25 07:43:00,45.0,40.5,30.29,West,275,1.0,5.0,84,0.00,,,0.00,Wunderground v.1.15,2013-04-25 12:43:00,
2013-04-25 07:49:00,45.5,40.9,30.30,West,263,1.0,6.0,84,0.00,,,0.00,Wunderground v.1.15,2013-04-25 12:49:00,
2013-04-25 07:54:00,45.7,40.8,30.30,West,263,1.0,4.0,83,0.00,,,0.00,Wunderground v.1.15,2013-04-25 12:54:00,
2013-04-25 08:00:00,46.0,41.1,30.30,WSW,238,2.0,2.0,83,0.00,,,0.00,Wunderground v.1.15,2013-04-25 13:00:00,
2013-04-25 08:06:00,46.0,40.8,30.30,SSW,200,3.0,9.0,82,0.00,,,0.00,Wunderground v.1.15,2013-04-25 13:06:00,
2013-04-25 08:11:00,46.2,41.0,30.30,SW,226,3.0,4.0,82,0.00,,,0.00,Wunderground v.1.15,2013-04-25 13:11:00,
2013-04-25 08:16:00,46.5,41.3,30.30,SW,221,3.0,4.0,82,0.00,,,0.00,Wunderground v.1.15,2013-04-25 13:16:00,
2013-04-25 08:21:00,46.8,41.6,30.30,WSW,249,2.0,5.0,82,0.00,,,0.00,Wunderground v.1.15,2013-04-25 13:21:00,
2013-04-25 08:26:00,46.9,41.1,30.30,West,269,3.0,5.0,80,0.00,,,0.00,Wunderground v.1.15,2013-04-25 13:26:00,
2013-04-25 08:31:00,47.4,41.9,30.31,WSW,239,3.0,3.0,81,0.00,,,0.00,Wunderground v.1.15,2013-04-25 13:31:00,
2013-04-25 08:37:00,47.8,41.9,30.31,WNW,284,2.0,6.0,80,0.00,,,0.00,Wunderground v.1.15,2013-04-25 13:37:00,
2013-04-25 08:42:00,48.0,42.4,30.31,WNW,290,3.0,3.0,81,0.00,,,0.00,Wunderground v.1.15,2013-04-25 13:42:00,
2013-04-25 08:47:00,48.4,41.5,30.31,WNW,282,4.0,7.0,77,0.00,,,0.00,Wunderground v.1.15,2013-04-25 13:47:00,
2013-04-25 08:52:00,48.7,42.1,30.31,West,266,5.0,7.0,78,0.00,,,0.00,Wunderground v.1.15,2013-04-25 13:52:00,
2013-04-25 08:57:00,48.8,40.9,30.31,WSW,251,6.0,8.0,74,0.00,,,0.00,Wunderground v.1.15,2013-04-25 13:57:00,
2013-04-25 09:03:00,48.9,41.0,30.31,WSW,246,5.0,8.0,74,0.00,,,0.00,Wunderground v.1.15,2013-04-25 14:03:00,
2013-04-25 09:08:00,49.2,41.3,30.31,WNW,287,5.0,8.0,74,0.00,,,0.00,Wunderground v.1.15,2013-04-25 14:08:00,
2013-04-25 09:13:00,49.5,40.8,30.31,West,267,5.0,6.0,72,0.00,,,0.00,Wunderground v.1.15,2013-04-25 14:13:00,
2013-04-25 09:18:00,49.8,41.5,30.31,WNW,288,6.0,9.0,73,0.00,,,0.00,Wunderground v.1.15,2013-04-25 14:18:00,
2013-04-25 09:23:00,50.0,39.8,30.31,WSW,257,6.0,8.0,68,0.00,,,0.00,Wunderground v.1.15,2013-04-25 14:23:00,
2013-04-25 09:29:00,50.8,42.5,30.31,West,269,6.0,8.0,73,0.00,,,0.00,Wunderground v.1.15,2013-04-25 14:29:00,
2013-04-25 09:34:00,50.9,39.9,30.32,WNW,293,8.0,14.0,66,0.00,,,0.00,Wunderground v.1.15,2013-04-25 14:34:00,
2013-04-25 09:39:00,51.0,40.8,30.32,WNW,290,9.0,14.0,68,0.00,,,0.00,Wunderground v.1.15,2013-04-25 14:39:00,
2013-04-25 09:45:00,51.4,41.9,30.33,West,280,7.0,9.0,70,0.00,,,0.00,Wunderground v.1.15,2013-04-25 14:45:00,
2013-04-25 09:50:00,51.7,42.6,30.33,WNW,290,7.0,7.0,71,0.00,,,0.00,Wunderground v.1.15,2013-04-25 14:50:00,
2013-04-25 09:55:00,51.8,41.6,30.32,West,273,7.0,8.0,68,0.00,,,0.00,Wunderground v.1.15,2013-04-25 14:55:00,
2013-04-25 10:00:00,52.2,42.0,30.32,WNW,291,7.0,10.0,68,0.00,,,0.00,Wunderground v.1.15,2013-04-25 15:00:00,
2013-04-25 10:06:00,52.2,42.3,30.32,WNW,287,7.0,10.0,69,0.00,,,0.00,Wunderground v.1.15,2013-04-25 15:06:00,
2013-04-25 10:11:00,52.5,42.2,30.33,WNW,299,8.0,10.0,68,0.00,,,0.00,Wunderground v.1.15,2013-04-25 15:11:00,
2013-04-25 10:16:00,52.7,42.4,30.33,West,280,7.0,10.0,68,0.00,,,0.00,Wunderground v.1.15,2013-04-25 15:16:00,
2013-04-25 10:21:00,52.9,41.8,30.33,WNW,287,8.0,9.0,66,0.00,,,0.00,Wunderground v.1.15,2013-04-25 15:21:00,
2013-04-25 10:26:00,52.9,41.8,30.33,West,281,8.0,10.0,66,0.00,,,0.00,Wunderground v.1.15,2013-04-25 15:26:00,
2013-04-25 10:31:00,53.2,42.1,30.33,WNW,284,8.0,9.0,66,0.00,,,0.00,Wunderground v.1.15,2013-04-25 15:31:00,
2013-04-25 10:36:00,53.4,44.2,30.34,WNW,283,8.0,9.0,71,0.00,,,0.00,Wunderground v.1.15,2013-04-25 15:36:00,
2013-04-25 10:41:00,53.6,43.3,30.33,WSW,257,7.0,8.0,68,0.00,,,0.00,Wunderground v.1.15,2013-04-25 15:41:00,
2013-04-25 10:46:00,53.8,43.1,30.34,WNW,293,7.0,8.0,67,0.00,,,0.00,Wunderground v.1.15,2013-04-25 15:46:00,
2013-04-25 10:52:00,54.1,44.5,30.33,West,266,7.0,7.0,70,0.00,,,0.00,Wunderground v.1.15,2013-04-25 15:52:00,
2013-04-25 10:57:00,54.4,44.8,30.33,WNW,293,7.0,9.0,70,0.00,,,0.00,Wunderground v.1.15,2013-04-25 15:57:00,
2013-04-25 11:03:00,54.5,43.8,30.34,WNW,293,8.0,8.0,67,0.00,,,0.00,Wunderground v.1.15,2013-04-25 16:03:00,
2013-04-25 11:08:00,54.5,43.8,30.34,WNW,283,9.0,12.0,67,0.00,,,0.00,Wunderground v.1.15,2013-04-25 16:08:00,
2013-04-25 11:13:00,54.9,44.1,30.34,WNW,301,8.0,8.0,67,0.00,,,0.00,Wunderground v.1.15,2013-04-25 16:13:00,
2013-04-25 11:18:00,54.8,43.7,30.34,WNW,293,7.0,9.0,66,0.00,,,0.00,Wunderground v.1.15,2013-04-25 16:18:00,
2013-04-25 11:23:00,55.0,45.8,30.34,NW,326,7.0,9.0,71,0.00,,,0.00,Wunderground v.1.15,2013-04-25 16:23:00,
2013-04-25 11:29:00,55.0,43.4,30.34,NW,322,8.0,10.0,65,0.00,,,0.00,Wunderground v.1.15,2013-04-25 16:29:00,
2013-04-25 11:34:00,55.4,44.6,30.34,NW,314,7.0,8.0,67,0.00,,,0.00,Wunderground v.1.15,2013-04-25 16:34:00,
2013-04-25 11:39:00,55.5,43.1,30.34,West,281,8.0,15.0,63,0.00,,,0.00,Wunderground v.1.15,2013-04-25 16:39:00,
2013-04-25 11:44:00,55.6,43.6,30.34,NW,307,10.0,10.0,64,0.00,,,0.00,Wunderground v.1.15,2013-04-25 16:44:00,
2013-04-25 11:49:00,55.7,43.3,30.34,WNW,295,9.0,10.0,63,0.00,,,0.00,Wunderground v.1.15,2013-04-25 16:49:00,
2013-04-25 11:55:00,55.8,43.0,30.34,NW,318,9.0,11.0,62,0.00,,,0.00,Wunderground v.1.15,2013-04-25 16:55:00,
2013-04-25 12:00:00,55.9,44.3,30.34,West,272,9.0,12.0,65,0.00,,,0.00,Wunderground v.1.15,2013-04-25 17:00:00,
2013-04-25 12:06:00,56.3,44.7,30.34,WNW,282,9.0,13.0,65,0.00,,,0.00,Wunderground v.1.15,2013-04-25 17:06:00,
2013-04-25 12:11:00,56.1,43.7,30.34,WNW,297,10.0,11.0,63,0.00,,,0.00,Wunderground v.1.15,2013-04-25 17:11:00,
2013-04-25 12:16:00,56.1,42.8,30.34,WNW,295,10.0,12.0,61,0.00,,,0.00,Wunderground v.1.15,2013-04-25 17:16:00,
2013-04-25 12:21:00,56.2,42.9,30.34,NW,311,9.0,13.0,61,0.00,,,0.00,Wunderground v.1.15,2013-04-25 17:21:00,
2013-04-25 12:26:00,56.3,43.9,30.34,West,264,9.0,13.0,63,0.00,,,0.00,Wunderground v.1.15,2013-04-25 17:26:00,
2013-04-25 12:32:00,56.6,43.7,30.34,WNW,297,9.0,13.0,62,0.00,,,0.00,Wunderground v.1.15,2013-04-25 17:32:00,
2013-04-25 12:37:00,56.6,41.5,30.34,West,274,10.0,14.0,57,0.00,,,0.00,Wunderground v.1.15,2013-04-25 17:37:00,
2013-04-25 12:42:00,56.5,41.9,30.34,WNW,285,10.0,14.0,58,0.00,,,0.00,Wunderground v.1.15,2013-04-25 17:42:00,
2013-04-25 12:47:00,56.8,41.3,30.33,WNW,283,10.0,14.0,56,0.00,,,0.00,Wunderground v.1.15,2013-04-25 17:47:00,
2013-04-25 12:53:00,57.1,42.0,30.33,West,278,10.0,11.0,57,0.00,,,0.00,Wunderground v.1.15,2013-04-25 17:53:00,
2013-04-25 12:58:00,57.1,40.6,30.33,West,280,10.0,15.0,54,0.00,,,0.00,Wunderground v.1.15,2013-04-25 17:58:00,
2013-04-25 13:04:00,57.1,40.1,30.33,WNW,284,11.0,13.0,53,0.00,,,0.00,Wunderground v.1.15,2013-04-25 18:04:00,
2013-04-25 13:09:00,57.0,40.0,30.33,WNW,291,12.0,16.0,53,0.00,,,0.00,Wunderground v.1.15,2013-04-25 18:09:00,
2013-04-25 13:14:00,57.3,41.7,30.33,West,277,11.0,16.0,56,0.00,,,0.00,Wunderground v.1.15,2013-04-25 18:14:00,
2013-04-25 13:20:00,57.4,42.3,30.33,West,269,12.0,12.0,57,0.00,,,0.00,Wunderground v.1.15,2013-04-25 18:20:00,
2013-04-25 13:25:00,57.5,40.0,30.33,West,280,12.0,17.0,52,0.00,,,0.00,Wunderground v.1.15,2013-04-25 18:25:00,
2013-04-25 13:30:00,57.9,38.8,30.33,West,276,13.0,13.0,49,0.00,,,0.00,Wunderground v.1.15,2013-04-25 18:30:00,
2013-04-25 13:35:00,58.4,42.8,30.33,WNW,282,12.0,15.0,56,0.00,,,0.00,Wunderground v.1.15,2013-04-25 18:35:00,
2013-04-25 13:41:00,57.9,40.9,30.33,WNW,302,11.0,11.0,53,0.00,,,0.00,Wunderground v.1.15,2013-04-25 18:41:00,
2013-04-25 13:46:00,58.3,39.2,30.34,WNW,288,12.0,17.0,49,0.00,,,0.00,Wunderground v.1.15,2013-04-25 18:46:00,
2013-04-25 13:51:00,58.2,40.1,30.34,WNW,291,13.0,17.0,51,0.00,,,0.00,Wunderground v.1.15,2013-04-25 18:51:00,
2013-04-25 13:57:00,57.6,38.6,30.34,WNW,287,12.0,17.0,49,0.00,,,0.00,Wunderground v.1.15,2013-04-25 18:57:00,
2013-04-25 14:02:00,57.6,38.0,30.34,WNW,288,12.0,13.0,48,0.00,,,0.00,Wunderground v.1.15,2013-04-25 19:02:00,
2013-04-25 14:07:00,57.9,40.9,30.33,WNW,295,12.0,17.0,53,0.00,,,0.00,Wunderground v.1.15,2013-04-25 19:07:00,
2013-04-25 14:13:00,58.1,40.1,30.34,WNW,287,12.0,15.0,51,0.00,,,0.00,Wunderground v.1.15,2013-04-25 19:13:00,
2013-04-25 14:18:00,58.2,40.6,30.34,WNW,297,11.0,15.0,52,0.00,,,0.00,Wunderground v.1.15,2013-04-25 19:18:00,
2013-04-25 14:23:00,58.0,37.9,30.34,WNW,290,11.0,14.0,47,0.00,,,0.00,Wunderground v.1.15,2013-04-25 19:23:00,
2013-04-25 14:29:00,57.7,37.0,30.34,West,281,11.0,15.0,46,0.00,,,0.00,Wunderground v.1.15,2013-04-25 19:29:00,
2013-04-25 14:34:00,57.7,39.7,30.35,WNW,290,11.0,13.0,51,0.00,,,0.00,Wunderground v.1.15,2013-04-25 19:34:00,
2013-04-25 14:39:00,57.9,39.9,30.34,WNW,288,11.0,14.0,51,0.00,,,0.00,Wunderground v.1.15,2013-04-25 19:39:00,
2013-04-25 14:44:00,57.9,39.9,30.34,WNW,297,10.0,11.0,51,0.00,,,0.00,Wunderground v.1.15,2013-04-25 19:44:00,
2013-04-25 14:50:00,57.9,39.9,30.34,West,280,8.0,12.0,51,0.00,,,0.00,Wunderground v.1.15,2013-04-25 19:50:00,
2013-04-25 14:55:00,58.0,38.9,30.34,WNW,293,9.0,13.0,49,0.00,,,0.00,Wunderground v.1.15,2013-04-25 19:55:00,
2013-04-25 15:00:00,58.5,38.9,30.34,NW,311,9.0,9.0,48,0.00,,,0.00,Wunderground v.1.15,2013-04-25 20:00:00,
2013-04-25 15:06:00,58.3,38.1,30.33,West,270,9.0,16.0,47,0.00,,,0.00,Wunderground v.1.15,2013-04-25 20:06:00,
2013-04-25 15:11:00,58.3,38.7,30.33,WNW,290,10.0,14.0,48,0.00,,,0.00,Wunderground v.1.15,2013-04-25 20:11:00,
2013-04-25 15:17:00,58.4,37.7,30.33,WNW,287,11.0,14.0,46,0.00,,,0.00,Wunderground v.1.15,2013-04-25 20:17:00,
2013-04-25 15:22:00,58.2,38.1,30.33,WNW,290,9.0,13.0,47,0.00,,,0.00,Wunderground v.1.15,2013-04-25 20:22:00,
2013-04-25 15:27:00,58.3,38.1,30.33,West,264,8.0,13.0,47,0.00,,,0.00,Wunderground v.1.15,2013-04-25 20:27:00,
2013-04-25 15:32:00,58.5,38.3,30.33,West,281,10.0,12.0,47,0.00,,,0.00,Wunderground v.1.15,2013-04-25 20:32:00,
2013-04-25 15:38:00,58.4,37.1,30.33,WNW,297,10.0,12.0,45,0.00,,,0.00,Wunderground v.1.15,2013-04-25 20:38:00,
2013-04-25 15:43:00,58.9,38.1,30.33,WNW,285,8.0,12.0,46,0.00,,,0.00,Wunderground v.1.15,2013-04-25 20:43:00,
2013-04-25 15:48:00,58.7,38.0,30.33,WNW,300,9.0,13.0,46,0.00,,,0.00,Wunderground v.1.15,2013-04-25 20:48:00,
2013-04-25 15:53:00,58.4,37.7,30.33,WNW,302,10.0,11.0,46,0.00,,,0.00,Wunderground v.1.15,2013-04-25 20:53:00,
2013-04-25 15:59:00,58.7,38.5,30.33,WNW,301,9.0,13.0,47,0.00,,,0.00,Wunderground v.1.15,2013-04-25 20:59:00,
2013-04-25 16:05:00,58.9,36.4,30.33,WNW,285,9.0,12.0,43,0.00,,,0.00,Wunderground v.1.15,2013-04-25 21:05:00,
2013-04-25 16:10:00,59.0,37.7,30.33,WNW,300,8.0,10.0,45,0.00,,,0.00,Wunderground v.1.15,2013-04-25 21:10:00,
2013-04-25 16:15:00,58.7,36.2,30.33,NNW,336,7.0,10.0,43,0.00,,,0.00,Wunderground v.1.15,2013-04-25 21:15:00,
2013-04-25 16:20:00,59.1,39.9,30.33,NW,312,7.0,7.0,49,0.00,,,0.00,Wunderground v.1.15,2013-04-25 21:20:00,
2013-04-25 16:26:00,59.1,38.3,30.33,WNW,284,8.0,10.0,46,0.00,,,0.00,Wunderground v.1.15,2013-04-25 21:26:00,
2013-04-25 16:31:00,59.0,37.7,30.33,WNW,287,8.0,10.0,45,0.00,,,0.00,Wunderground v.1.15,2013-04-25 21:31:00,
2013-04-25 16:36:00,59.0,39.3,30.33,NW,316,9.0,12.0,48,0.00,,,0.00,Wunderground v.1.15,2013-04-25 21:36:00,
2013-04-25 16:41:00,59.1,36.6,30.33,NW,314,9.0,9.0,43,0.00,,,0.00,Wunderground v.1.15,2013-04-25 21:41:00,
2013-04-25 16:47:00,59.3,37.4,30.33,WNW,293,9.0,12.0,44,0.00,,,0.00,Wunderground v.1.15,2013-04-25 21:47:00,
2013-04-25 16:52:00,59.3,38.5,30.33,NW,307,8.0,12.0,46,0.00,,,0.00,Wunderground v.1.15,2013-04-25 21:52:00,
2013-04-25 16:57:00,59.1,36.0,30.33,NW,309,9.0,14.0,42,0.00,,,0.00,Wunderground v.1.15,2013-04-25 21:57:00,
2013-04-25 17:03:00,59.1,36.6,30.33,NW,323,8.0,9.0,43,0.00,,,0.00,Wunderground v.1.15,2013-04-25 22:03:00,
2013-04-25 17:08:00,59.2,37.3,30.33,West,281,7.0,9.0,44,0.00,,,0.00,Wunderground v.1.15,2013-04-25 22:08:00,
2013-04-25 17:13:00,59.2,36.7,30.33,WNW,303,7.0,9.0,43,0.00,,,0.00,Wunderground v.1.15,2013-04-25 22:13:00,
2013-04-25 17:18:00,59.1,36.0,30.33,NNW,331,8.0,9.0,42,0.00,,,0.00,Wunderground v.1.15,2013-04-25 22:18:00,
2013-04-25 17:24:00,59.1,36.0,30.33,WNW,297,8.0,9.0,42,0.00,,,0.00,Wunderground v.1.15,2013-04-25 22:24:00,
2013-04-25 17:29:00,59.3,37.4,30.33,NW,316,7.0,9.0,44,0.00,,,0.00,Wunderground v.1.15,2013-04-25 22:29:00,
2013-04-25 17:34:00,59.5,35.1,30.33,West,274,6.0,10.0,40,0.00,,,0.00,Wunderground v.1.15,2013-04-25 22:34:00,
2013-04-25 17:40:00,59.2,34.9,30.33,West,269,7.0,7.0,40,0.00,,,0.00,Wunderground v.1.15,2013-04-25 22:40:00,
2013-04-25 17:45:00,59.3,37.4,30.33,WNW,294,6.0,7.0,44,0.00,,,0.00,Wunderground v.1.15,2013-04-25 22:45:00,
2013-04-25 17:50:00,59.4,35.7,30.33,WNW,291,5.0,6.0,41,0.00,,,0.00,Wunderground v.1.15,2013-04-25 22:50:00,
2013-04-25 17:56:00,59.3,36.2,30.33,NW,304,6.0,8.0,42,0.00,,,0.00,Wunderground v.1.15,2013-04-25 22:56:00,
2013-04-25 18:02:00,59.2,37.3,30.33,NW,312,6.0,7.0,44,0.00,,,0.00,Wunderground v.1.15,2013-04-25 23:02:00,
2013-04-25 18:07:00,59.2,36.7,30.33,West,266,6.0,7.0,43,0.00,,,0.00,Wunderground v.1.15,2013-04-25 23:07:00,
2013-04-25 18:12:00,59.2,36.1,30.33,WNW,294,5.0,5.0,42,0.00,,,0.00,Wunderground v.1.15,2013-04-25 23:12:00,
2013-04-25 18:17:00,59.3,38.5,30.33,WNW,295,5.0,7.0,46,0.00,,,0.00,Wunderground v.1.15,2013-04-25 23:17:00,
2013-04-25 18:22:00,59.1,38.3,30.32,West,281,5.0,5.0,46,0.00,,,0.00,Wunderground v.1.15,2013-04-25 23:22:00,
2013-04-25 18:28:00,59.4,37.5,30.32,West,269,3.0,5.0,44,0.00,,,0.00,Wunderground v.1.15,2013-04-25 23:28:00,
2013-04-25 18:33:00,59.3,37.4,30.32,NNW,329,3.0,6.0,44,0.00,,,0.00,Wunderground v.1.15,2013-04-25 23:33:00,
2013-04-25 18:39:00,59.1,36.6,30.32,NNW,340,4.0,6.0,43,0.00,,,0.00,Wunderground v.1.15,2013-04-25 23:39:00,
2013-04-25 18:44:00,59.0,37.7,30.32,NW,324,4.0,4.0,45,0.00,,,0.00,Wunderground v.1.15,2013-04-25 23:44:00,
2013-04-25 18:49:00,58.9,37.6,30.32,NW,319,3.0,4.0,45,0.00,,,0.00,Wunderground v.1.15,2013-04-25 23:49:00,
2013-04-25 18:54:00,58.9,36.4,30.33,WNW,297,2.0,3.0,43,0.00,,,0.00,Wunderground v.1.15,2013-04-25 23:54:00,
2013-04-25 19:00:00,58.9,38.7,30.33,WNW,301,2.0,2.0,47,0.00,,,0.00,Wunderground v.1.15,2013-04-26 00:00:00,
2013-04-25 19:06:00,58.7,37.4,30.33,WNW,297,1.0,4.0,45,0.00,,,0.00,Wunderground v.1.15,2013-04-26 00:06:00,
2013-04-25 19:11:00,58.4,39.8,30.33,West,281,1.0,1.0,50,0.00,,,0.00,Wunderground v.1.15,2013-04-26 00:11:00,
2013-04-25 19:17:00,57.9,41.3,30.33,West,278,0.0,1.0,54,0.00,,,0.00,Wunderground v.1.15,2013-04-26 00:17:00,
2013-04-25 19:22:00,57.5,40.0,30.33,SSW,208,0.0,0.0,52,0.00,,,0.00,Wunderground v.1.15,2013-04-26 00:22:00,
2013-04-25 19:28:00,56.8,40.8,30.33,SSW,208,0.0,0.0,55,0.00,,,0.00,Wunderground v.1.15,2013-04-26 00:28:00,
2013-04-25 19:33:00,55.9,39.0,30.33,SSW,208,0.0,0.0,53,0.00,,,0.00,Wunderground v.1.15,2013-04-26 00:33:00,
2013-04-25 19:39:00,54.7,37.4,30.33,SSW,208,0.0,0.0,52,0.00,,,0.00,Wunderground v.1.15,2013-04-26 00:39:00,
2013-04-25 19:44:00,53.7,37.0,30.33,SSW,208,0.0,0.0,53,0.00,,,0.00,Wunderground v.1.15,2013-04-26 00:44:00,
2013-04-25 19:50:00,52.8,38.4,30.33,SSW,208,0.0,0.0,58,0.00,,,0.00,Wunderground v.1.15,2013-04-26 00:50:00,
2013-04-25 19:55:00,52.1,39.9,30.33,East,83,0.0,1.0,63,0.00,,,0.00,Wunderground v.1.15,2013-04-26 00:55:00,
2013-04-25 20:00:00,50.9,41.8,30.33,East,93,0.0,0.0,71,0.00,,,0.00,Wunderground v.1.15,2013-04-26 01:00:00,
2013-04-25 20:06:00,50.3,38.2,30.33,East,93,0.0,0.0,63,0.00,,,0.00,Wunderground v.1.15,2013-04-26 01:06:00,
2013-04-25 20:11:00,50.2,39.3,30.33,East,93,0.0,0.0,66,0.00,,,0.00,Wunderground v.1.15,2013-04-26 01:11:00,
2013-04-25 20:16:00,50.0,39.5,30.33,East,93,0.0,0.0,67,0.00,,,0.00,Wunderground v.1.15,2013-04-26 01:16:00,
2013-04-25 20:22:00,49.6,40.2,30.33,East,94,0.0,0.0,70,0.00,,,0.00,Wunderground v.1.15,2013-04-26 01:22:00,
2013-04-25 20:27:00,49.1,41.2,30.34,East,93,0.0,0.0,74,0.00,,,0.00,Wunderground v.1.15,2013-04-26 01:27:00,
2013-04-25 20:32:00,48.4,41.5,30.34,East,93,0.0,0.0,77,0.00,,,0.00,Wunderground v.1.15,2013-04-26 01:32:00,
2013-04-25 20:38:00,47.9,42.0,30.34,East,93,0.0,0.0,80,0.00,,,0.00,Wunderground v.1.15,2013-04-26 01:38:00,
2013-04-25 20:43:00,47.3,40.5,30.34,East,93,0.0,0.0,77,0.00,,,0.00,Wunderground v.1.15,2013-04-26 01:43:00,
2013-04-25 20:48:00,47.2,41.7,30.34,East,93,0.0,0.0,81,0.00,,,0.00,Wunderground v.1.15,2013-04-26 01:48:00,
2013-04-25 20:54:00,46.9,41.1,30.34,East,93,0.0,0.0,80,0.00,,,0.00,Wunderground v.1.15,2013-04-26 01:54:00,
2013-04-25 20:59:00,46.7,41.2,30.35,East,93,0.0,0.0,81,0.00,,,0.00,Wunderground v.1.15,2013-04-26 01:59:00,
2013-04-25 21:05:00,46.6,41.1,30.35,East,93,0.0,0.0,81,0.00,,,0.00,Wunderground v.1.15,2013-04-26 02:05:00,
2013-04-25 21:10:00,46.6,42.0,30.35,East,93,0.0,0.0,84,0.00,,,0.00,Wunderground v.1.15,2013-04-26 02:10:00,
2013-04-25 21:16:00,46.5,42.2,30.35,East,81,0.0,1.0,85,0.00,,,0.00,Wunderground v.1.15,2013-04-26 02:16:00,
2013-04-25 21:21:00,46.4,42.7,30.35,ENE,76,0.0,0.0,87,0.00,,,0.00,Wunderground v.1.15,2013-04-26 02:21:00,
2013-04-25 21:26:00,46.0,42.3,30.35,ENE,76,0.0,0.0,87,0.00,,,0.00,Wunderground v.1.15,2013-04-26 02:26:00,
2013-04-25 21:31:00,45.6,42.3,30.35,ESE,108,0.0,0.0,88,0.00,,,0.00,Wunderground v.1.15,2013-04-26 02:31:00,
2013-04-25 21:36:00,45.1,41.5,30.35,ESE,108,0.0,0.0,87,0.00,,,0.00,Wunderground v.1.15,2013-04-26 02:36:00,
2013-04-25 21:42:00,45.0,41.7,30.35,East,84,0.0,0.0,88,0.00,,,0.00,Wunderground v.1.15,2013-04-26 02:42:00,
2013-04-25 21:47:00,45.0,42.0,30.36,East,85,0.0,0.0,89,0.00,,,0.00,Wunderground v.1.15,2013-04-26 02:47:00,
2013-04-25 21:53:00,44.8,41.8,30.35,East,85,0.0,0.0,89,0.00,,,0.00,Wunderground v.1.15,2013-04-26 02:53:00,
2013-04-25 21:58:00,44.5,41.7,30.36,East,85,0.0,0.0,90,0.00,,,0.00,Wunderground v.1.15,2013-04-26 02:58:00,
2013-04-25 22:04:00,44.4,41.9,30.35,East,79,0.0,1.0,91,0.00,,,0.00,Wunderground v.1.15,2013-04-26 03:04:00,
2013-04-25 22:09:00,44.4,41.7,30.35,SE,141,0.0,1.0,90,0.00,,,0.00,Wunderground v.1.15,2013-04-26 03:09:00,
2013-04-25 22:14:00,44.0,41.3,30.36,SE,141,0.0,0.0,90,0.00,,,0.00,Wunderground v.1.15,2013-04-26 03:14:00,
2013-04-25 22:19:00,43.9,41.4,30.36,SE,141,0.0,1.0,91,0.00,,,0.00,Wunderground v.1.15,2013-04-26 03:19:00,
2013-04-25 22:25:00,43.6,41.1,30.36,SE,141,0.0,0.0,91,0.00,,,0.00,Wunderground v.1.15,2013-04-26 03:25:00,
2013-04-25 22:30:00,43.5,41.0,30.35,SE,141,0.0,0.0,91,0.00,,,0.00,Wunderground v.1.15,2013-04-26 03:30:00,
2013-04-25 22:35:00,43.3,40.8,30.35,SE,141,0.0,0.0,91,0.00,,,0.00,Wunderground v.1.15,2013-04-26 03:35:00,
2013-04-25 22:41:00,43.1,40.7,30.35,SE,141,0.0,0.0,91,0.00,,,0.00,Wunderground v.1.15,2013-04-26 03:41:00,
2013-04-25 22:46:00,42.9,40.5,30.35,SE,141,0.0,0.0,91,0.00,,,0.00,Wunderground v.1.15,2013-04-26 03:46:00,
2013-04-25 22:51:00,42.8,40.6,30.35,SE,141,0.0,0.0,92,0.00,,,0.00,Wunderground v.1.15,2013-04-26 03:51:00,
2013-04-25 22:56:00,42.6,40.2,30.35,SE,141,0.0,0.0,91,0.00,,,0.00,Wunderground v.1.15,2013-04-26 03:56:00,
2013-04-25 23:01:00,42.3,39.9,30.35,SE,141,0.0,0.0,91,0.00,,,0.00,Wunderground v.1.15,2013-04-26 04:01:00,
2013-04-25 23:02:00,42.3,40.1,30.35,SE,141,0.0,0.0,92,0.00,,,0.00,Wunderground v.1.15,2013-04-26 04:02:00,
2013-04-25 23:03:00,42.3,40.1,30.35,SE,141,0.0,0.0,92,0.00,,,0.00,Wunderground v.1.15,2013-04-26 04:03:00,
2013-04-25 23:04:00,42.2,40.0,30.35,SE,141,0.0,0.0,92,0.00,,,0.00,Wunderground v.1.15,2013-04-26 04:04:00,
2013-04-25 23:05:00,42.2,40.0,30.35,SE,141,0.0,0.0,92,0.00,,,0.00,Wunderground v.1.15,2013-04-26 04:05:00,
2013-04-25 23:10:00,42.1,39.9,30.35,SE,141,0.0,0.0,92,0.00,,,0.00,Wunderground v.1.15,2013-04-26 04:10:00,
2013-04-25 23:15:00,42.0,39.8,30.35,SE,141,0.0,0.0,92,0.00,,,0.00,Wunderground v.1.15,2013-04-26 04:15:00,
2013-04-25 23:20:00,42.1,39.9,30.35,ESE,121,0.0,0.0,92,0.00,,,0.00,Wunderground v.1.15,2013-04-26 04:20:00,
2013-04-25 23:25:00,42.1,39.9,30.35,ESE,121,0.0,0.0,92,0.00,,,0.00,Wunderground v.1.15,2013-04-26 04:25:00,
2013-04-25 23:31:00,42.0,39.8,30.35,ESE,121,0.0,0.0,92,0.00,,,0.00,Wunderground v.1.15,2013-04-26 04:31:00,
2013-04-25 23:36:00,42.2,40.0,30.35,ESE,122,0.0,0.0,92,0.00,,,0.00,Wunderground v.1.15,2013-04-26 04:36:00,
2013-04-25 23:42:00,42.2,40.0,30.35,ESE,121,0.0,0.0,92,0.00,,,0.00,Wunderground v.1.15,2013-04-26 04:42:00,
2013-04-25 23:47:00,42.0,39.6,30.35,ESE,122,0.0,0.0,91,0.00,,,0.00,Wunderground v.1.15,2013-04-26 04:47:00,
2013-04-25 23:53:00,41.6,39.2,30.35,ESE,121,0.0,0.0,91,0.00,,,0.00,Wunderground v.1.15,2013-04-26 04:53:00,
2013-04-25 23:58:00,41.5,39.3,30.36,ESE,123,0.0,0.0,92,0.00,,,0.00,Wunderground v.1.15,2013-04-26 04:58:00,